createdAt,value
2023-09-06T04:03:09.207Z,20.90
2023-09-06T04:05:38.715Z,20.48
2023-09-06T04:08:08.303Z,18.70
2023-09-06T04:10:41.633Z,19.00
2023-09-06T04:13:10.611Z,19.83
2023-09-06T04:15:39.119Z,19.73
2023-09-06T04:18:11.247Z,19.70
2023-09-06T04:20:45.815Z,18.95
2023-09-06T04:23:15.010Z,19.67
2023-09-06T04:25:47.469Z,17.90
2023-09-06T04:28:21.955Z,20.30
2023-09-06T04:30:53.653Z,19.65
2023-09-06T04:33:25.541Z,19.73
2023-09-06T04:35:58.787Z,19.33
2023-09-06T04:38:27.360Z,17.95
2023-09-06T04:41:00.227Z,16.13
2023-09-06T04:43:34.254Z,16.90
2023-09-06T04:46:03.551Z,16.85
2023-09-06T04:48:35.461Z,17.23
2023-09-06T04:51:03.759Z,17.70
2023-09-06T04:53:31.291Z,17.50
2023-09-06T04:56:03.913Z,18.10
2023-09-06T04:58:39.022Z,16.75
2023-09-06T05:01:11.789Z,16.83
2023-09-06T05:03:41.907Z,17.10
2023-09-06T05:06:09.517Z,16.75
2023-09-06T05:08:37.431Z,17.27
2023-09-06T05:11:25.405Z,16.73
2023-09-06T05:13:53.751Z,16.08
2023-09-06T05:16:23.520Z,16.08
2023-09-06T05:18:51.222Z,15.77
2023-09-06T05:21:22.766Z,16.05
2023-09-06T05:23:50.872Z,15.88
2023-09-06T05:26:18.301Z,17.48
2023-09-06T05:28:49.872Z,16.60
2023-09-06T05:31:19.682Z,17.05
2023-09-06T05:33:48.859Z,18.58
2023-09-06T05:36:18.482Z,17.63
2023-09-06T05:38:45.853Z,17.13
2023-09-06T05:41:14.518Z,18.65
2023-09-06T05:43:44.420Z,17.92
2023-09-06T05:46:25.851Z,16.77
2023-09-06T05:49:01.915Z,16.45
2023-09-06T05:51:34.659Z,16.23
2023-09-06T05:54:04.434Z,16.55
2023-09-06T05:56:34.775Z,14.77
2023-09-06T05:59:02.176Z,15.88
2023-09-06T06:01:30.039Z,15.15
2023-09-06T06:03:57.548Z,16.60
2023-09-06T06:06:24.998Z,14.80
2023-09-06T06:08:52.462Z,16.58
2023-09-06T06:11:21.655Z,15.70
2023-09-06T06:14:00.300Z,16.00
2023-09-06T06:16:36.543Z,16.80
2023-09-06T06:19:04.438Z,17.50
2023-09-06T06:21:32.744Z,16.30
2023-09-06T06:24:00.218Z,18.27
2023-09-06T06:26:28.229Z,18.60
2023-09-06T06:28:55.726Z,21.73
2023-09-06T06:31:23.455Z,24.92
2023-09-06T06:33:51.587Z,23.73
2023-09-06T06:36:18.932Z,23.20
2023-09-06T06:38:49.178Z,22.70
2023-09-06T06:41:27.165Z,25.15
2023-09-06T06:43:54.811Z,24.08
2023-09-06T06:46:26.886Z,24.33
2023-09-06T06:48:55.447Z,24.70
2023-09-06T06:51:23.666Z,26.67
2023-09-06T06:53:51.109Z,24.15
2023-09-06T06:56:22.986Z,26.20
2023-09-06T06:58:50.647Z,27.80
2023-09-06T07:01:18.837Z,28.38
2023-09-06T07:03:47.503Z,26.05
2023-09-06T07:06:15.361Z,26.75
2023-09-06T07:08:43.028Z,29.35
2023-09-06T07:11:12.332Z,28.80
2023-09-06T07:13:41.496Z,30.10
2023-09-06T07:16:10.711Z,28.15
2023-09-06T07:18:38.294Z,29.83
2023-09-06T07:21:05.646Z,29.55
2023-09-06T07:23:33.223Z,30.08
2023-09-06T07:26:01.076Z,29.67
2023-09-06T07:28:37.354Z,28.58
2023-09-06T07:31:05.368Z,29.73
2023-09-06T07:33:32.810Z,30.40
2023-09-06T07:36:00.204Z,29.17
2023-09-06T07:38:28.066Z,30.55
2023-09-06T07:41:07.449Z,29.88
2023-09-06T07:43:37.422Z,31.23
2023-09-06T07:46:09.949Z,30.10
2023-09-06T07:48:40.239Z,29.67
2023-09-06T07:51:09.568Z,29.80
2023-09-06T07:53:37.447Z,29.33
2023-09-06T07:56:07.224Z,29.83
2023-09-06T07:58:34.886Z,29.77
2023-09-06T08:01:16.828Z,30.35
2023-09-06T08:03:46.158Z,27.35
2023-09-06T08:06:15.475Z,28.75
2023-09-06T08:08:44.929Z,27.33
2023-09-06T08:11:12.581Z,27.67
2023-09-06T08:13:42.636Z,27.45
2023-09-06T08:16:13.393Z,23.73
2023-09-06T08:18:41.765Z,25.92
2023-09-06T08:21:09.951Z,22.40
2023-09-06T08:23:37.376Z,24.30
2023-09-06T08:26:05.338Z,21.52
2023-09-06T08:28:32.870Z,22.27
2023-09-06T08:31:02.973Z,21.02
2023-09-06T08:33:31.032Z,20.13
2023-09-06T08:35:59.785Z,16.42
2023-09-06T08:38:27.699Z,14.45
2023-09-06T08:40:55.708Z,12.60
2023-09-06T08:43:24.957Z,13.63
2023-09-06T08:45:52.958Z,14.02
2023-09-06T08:48:22.912Z,13.25
2023-09-06T08:50:52.600Z,12.48
2023-09-06T08:55:50.626Z,15.98
2023-09-06T08:58:18.770Z,16.27
2023-09-06T09:00:47.328Z,13.57
2023-09-06T09:03:14.970Z,15.13
2023-09-06T09:05:42.387Z,16.33
2023-09-06T09:08:11.055Z,16.10
2023-09-06T09:10:38.461Z,13.73
2023-09-06T09:13:13.167Z,13.38
2023-09-06T09:15:41.502Z,15.20
2023-09-06T09:18:16.501Z,12.60
2023-09-06T09:20:45.080Z,12.77
2023-09-06T09:23:17.618Z,12.85
2023-09-06T09:25:50.892Z,13.23
2023-09-06T09:28:18.831Z,11.68
2023-09-06T09:30:47.685Z,10.10
2023-09-06T09:33:16.104Z,10.55
2023-09-06T09:35:45.153Z,8.93
2023-09-06T09:38:12.880Z,8.07
2023-09-06T09:43:11.152Z,9.40
2023-09-06T09:45:45.038Z,10.38
2023-09-06T09:48:13.433Z,9.60
2023-09-06T09:50:42.881Z,11.45
2023-09-06T09:53:25.311Z,8.95
2023-09-06T09:55:54.820Z,8.40
2023-09-06T09:58:24.270Z,14.65
2023-09-06T10:00:53.512Z,8.48
2023-09-06T10:03:22.949Z,6.55
2023-09-06T10:05:51.157Z,7.32
2023-09-06T10:08:20.036Z,5.68
2023-09-06T10:10:47.839Z,5.15
2023-09-06T10:13:16.571Z,5.93
2023-09-06T10:15:45.321Z,5.78
2023-09-06T10:18:13.528Z,5.90
2023-09-06T10:20:42.205Z,6.30
2023-09-06T10:23:10.657Z,6.47
2023-09-06T10:25:43.247Z,5.72
2023-09-06T10:28:10.658Z,5.63
2023-09-06T10:30:46.482Z,4.70
2023-09-06T10:33:39.644Z,5.30
2023-09-06T10:36:10.151Z,4.32
2023-09-06T10:39:03.139Z,5.25
2023-09-06T10:41:31.096Z,4.40
2023-09-06T10:44:05.983Z,5.85
2023-09-06T10:46:37.561Z,4.47
2023-09-06T10:49:26.886Z,5.38
2023-09-06T10:52:02.780Z,5.50
2023-09-06T10:54:38.925Z,5.15
2023-09-06T10:57:09.121Z,4.90
2023-09-06T10:59:40.901Z,4.40
2023-09-06T11:02:26.624Z,5.35
2023-09-06T11:05:06.988Z,5.85
2023-09-06T11:07:49.353Z,4.95
2023-09-06T11:10:26.266Z,6.68
2023-09-06T11:12:56.368Z,5.72
2023-09-06T11:15:25.026Z,5.28
2023-09-06T11:17:58.621Z,5.40
2023-09-06T11:20:27.420Z,4.38
2023-09-06T11:22:59.843Z,5.35
2023-09-06T11:25:29.169Z,4.32
2023-09-06T11:28:02.032Z,4.40
2023-09-06T11:30:33.350Z,5.10
2023-09-06T11:33:01.113Z,3.75
2023-09-06T11:35:36.175Z,3.95
2023-09-06T11:38:05.516Z,4.00
2023-09-06T11:40:36.134Z,3.80
2023-09-06T11:43:06.400Z,3.85
2023-09-06T11:45:34.321Z,5.40
2023-09-06T11:48:09.106Z,3.88
2023-09-06T11:50:39.729Z,4.25
2023-09-06T11:53:11.543Z,3.25
2023-09-06T11:55:42.873Z,3.25
2023-09-06T11:58:18.270Z,4.38
2023-09-06T12:00:51.702Z,7.45
2023-09-06T12:03:27.507Z,6.18
2023-09-06T12:05:57.593Z,4.97
2023-09-06T12:08:25.613Z,6.40
2023-09-06T12:10:55.941Z,6.57
2023-09-06T12:13:31.987Z,6.20
2023-09-06T12:16:00.162Z,5.25
2023-09-06T12:18:30.233Z,3.75
2023-09-06T12:20:59.085Z,5.32
2023-09-06T12:23:30.563Z,5.57
2023-09-06T12:25:59.676Z,4.50
2023-09-06T12:28:29.378Z,3.75
2023-09-06T12:31:07.777Z,3.63
2023-09-06T12:33:40.502Z,3.80
2023-09-06T12:36:12.059Z,3.67
2023-09-06T12:38:40.280Z,4.22
2023-09-06T12:41:07.898Z,6.07
2023-09-06T12:43:36.921Z,3.50
2023-09-06T12:46:13.474Z,4.20
2023-09-06T12:48:46.222Z,3.72
2023-09-06T12:51:13.758Z,3.40
2023-09-06T12:53:41.798Z,3.40
2023-09-06T12:56:13.049Z,4.53
2023-09-06T12:58:42.433Z,2.92
2023-09-06T13:01:12.202Z,3.78
2023-09-06T13:06:09.660Z,2.88
2023-09-06T13:08:37.864Z,4.35
2023-09-06T13:11:05.944Z,4.00
2023-09-06T13:13:33.937Z,3.63
2023-09-06T13:16:01.379Z,3.75
2023-09-06T13:18:30.273Z,2.83
2023-09-06T13:20:58.794Z,3.50
2023-09-06T13:23:26.562Z,3.15
2023-09-06T13:25:54.003Z,4.82
2023-09-06T13:28:21.823Z,2.85
2023-09-06T13:30:49.486Z,3.72
2023-09-06T13:33:17.036Z,3.03
2023-09-06T13:35:44.518Z,3.70
2023-09-06T13:38:13.455Z,3.47
2023-09-06T13:40:40.858Z,3.70
2023-09-06T13:43:08.891Z,11.65
2023-09-06T13:45:36.899Z,7.82
2023-09-06T13:48:04.929Z,4.35
2023-09-06T13:50:32.863Z,2.85
2023-09-06T13:53:00.398Z,3.65
2023-09-06T13:55:27.803Z,2.83
2023-09-06T13:57:55.220Z,3.15
2023-09-06T14:00:23.296Z,3.90
2023-09-06T14:02:51.277Z,4.10
2023-09-06T14:05:19.125Z,5.60
2023-09-06T14:07:46.531Z,3.80
2023-09-06T14:10:13.955Z,4.50
2023-09-06T14:12:41.268Z,6.18
2023-09-06T14:15:09.652Z,3.20
2023-09-06T14:17:37.334Z,3.78
2023-09-06T14:20:07.235Z,4.40
2023-09-06T14:22:34.762Z,3.65
2023-09-06T14:25:02.082Z,3.85
2023-09-06T14:27:29.542Z,4.00
2023-09-06T14:29:58.808Z,3.28
2023-09-06T14:32:26.437Z,4.75
2023-09-06T14:34:54.341Z,4.55
2023-09-06T14:37:22.432Z,3.05
2023-09-06T14:39:50.296Z,3.38
2023-09-06T14:42:17.640Z,2.75
2023-09-06T14:44:45.124Z,3.15
2023-09-06T14:47:13.770Z,3.15
2023-09-06T14:49:41.904Z,3.37
2023-09-06T14:52:09.264Z,2.72
2023-09-06T14:54:37.213Z,2.85
2023-09-06T14:57:05.617Z,3.25
2023-09-06T14:59:33.018Z,3.28
2023-09-06T15:02:00.587Z,3.17
2023-09-06T15:04:28.188Z,2.83
2023-09-06T15:06:59.837Z,2.83
2023-09-06T15:09:28.221Z,2.25
2023-09-06T15:11:56.318Z,2.60
2023-09-06T15:14:25.002Z,2.40
2023-09-06T15:16:52.934Z,2.13
2023-09-06T15:19:20.820Z,2.10
2023-09-06T15:21:48.797Z,2.63
2023-09-06T15:24:17.697Z,2.83
2023-09-06T15:26:45.127Z,2.35
2023-09-06T15:29:13.014Z,2.38
2023-09-06T15:31:40.475Z,2.90
2023-09-06T15:34:08.282Z,3.05
2023-09-06T15:36:35.867Z,2.97
2023-09-06T15:39:04.501Z,2.33
2023-09-06T15:41:33.725Z,2.33
2023-09-06T15:46:34.713Z,2.72
2023-09-06T15:49:02.266Z,2.50
2023-09-06T15:51:29.844Z,2.47
2023-09-06T15:53:57.869Z,2.53
2023-09-06T15:56:26.173Z,2.35
2023-09-06T15:58:55.833Z,3.38
2023-09-06T16:01:24.897Z,2.72
2023-09-06T16:03:52.336Z,2.22
2023-09-06T16:06:20.133Z,5.05
2023-09-06T16:08:47.993Z,6.95
2023-09-06T16:11:16.094Z,4.13
2023-09-06T16:13:43.551Z,2.85
2023-09-06T16:16:10.978Z,2.90
2023-09-06T16:18:38.436Z,3.10
2023-09-06T16:21:06.862Z,3.40
2023-09-06T16:23:34.763Z,3.20
2023-09-06T16:26:10.480Z,3.33
2023-09-06T16:28:38.637Z,2.92
2023-09-06T16:31:06.514Z,2.65
2023-09-06T16:33:36.699Z,2.67
2023-09-06T16:36:07.560Z,2.47
2023-09-06T16:38:35.516Z,2.72
2023-09-06T16:41:03.621Z,7.00
2023-09-06T16:43:31.246Z,3.35
2023-09-06T16:45:58.812Z,3.33
2023-09-06T16:48:26.877Z,2.38
2023-09-06T16:50:54.842Z,9.48
2023-09-06T16:53:22.222Z,2.30
2023-09-06T16:55:49.706Z,2.60
2023-09-06T16:58:17.656Z,2.78
2023-09-06T17:00:45.517Z,2.40
2023-09-06T17:03:13.100Z,3.30
2023-09-06T17:05:40.968Z,3.75
2023-09-06T17:08:08.602Z,4.03
2023-09-06T17:10:36.079Z,3.42
2023-09-06T17:13:03.984Z,4.68
2023-09-06T17:15:32.533Z,4.53
2023-09-06T17:18:00.582Z,4.45
2023-09-06T17:20:28.159Z,4.45
2023-09-06T17:22:58.783Z,4.40
2023-09-06T17:25:26.787Z,4.20
2023-09-06T17:27:54.675Z,5.07
2023-09-06T17:30:23.946Z,5.32
2023-09-06T17:33:15.460Z,5.15
2023-09-06T17:35:45.346Z,6.90
2023-09-06T17:38:14.845Z,5.32
2023-09-06T17:40:48.252Z,5.30
2023-09-06T17:43:17.570Z,5.22
2023-09-06T17:45:48.016Z,7.07
2023-09-06T17:48:17.958Z,6.03
2023-09-06T17:50:51.952Z,5.78
2023-09-06T17:53:22.208Z,5.25
2023-09-06T17:55:51.401Z,4.93
2023-09-06T17:58:19.200Z,6.18
2023-09-06T18:00:49.372Z,38.35
2023-09-06T18:03:19.295Z,27.48
2023-09-06T18:05:56.263Z,18.70
2023-09-06T18:08:27.563Z,34.45
2023-09-06T18:10:56.197Z,25.30
2023-09-06T18:13:24.275Z,11.35
2023-09-06T18:15:53.926Z,7.68
2023-09-06T18:18:21.443Z,7.82
2023-09-06T18:20:49.269Z,6.53
2023-09-06T18:23:20.100Z,6.13
2023-09-06T18:28:14.949Z,9.63
2023-09-06T18:30:46.336Z,9.90
2023-09-06T18:33:15.679Z,10.65
2023-09-06T18:35:46.235Z,9.07
2023-09-06T18:38:17.195Z,9.77
2023-09-06T18:40:46.224Z,7.72
2023-09-06T18:43:13.995Z,8.65
2023-09-06T18:45:42.432Z,8.70
2023-09-06T18:48:15.327Z,9.70
2023-09-06T18:50:46.431Z,9.85
2023-09-06T18:53:14.835Z,9.15
2023-09-06T18:55:45.949Z,8.85
2023-09-06T19:00:42.594Z,8.45
2023-09-06T19:03:14.027Z,8.45
2023-09-06T19:05:43.253Z,8.10
2023-09-06T19:08:16.311Z,7.85
2023-09-06T19:10:45.339Z,8.48
2023-09-06T19:13:15.530Z,9.05
2023-09-06T19:15:48.218Z,8.73
2023-09-06T19:18:19.058Z,9.00
2023-09-06T19:20:47.069Z,8.43
2023-09-06T19:23:21.847Z,8.80
2023-09-06T19:25:55.244Z,8.65
2023-09-06T19:28:24.642Z,8.73
2023-09-06T19:30:56.754Z,8.73
2023-09-06T19:33:27.056Z,9.70
2023-09-06T19:35:55.816Z,9.40
2023-09-06T19:38:23.727Z,9.07
2023-09-06T19:40:54.389Z,8.98
2023-09-06T19:45:55.470Z,9.95
2023-09-06T19:48:24.827Z,10.00
2023-09-06T19:50:52.911Z,10.20
2023-09-06T19:53:21.328Z,10.25
2023-09-06T19:55:49.446Z,11.10
2023-09-06T19:58:17.277Z,11.65
2023-09-06T20:00:45.139Z,9.55
2023-09-06T20:03:14.007Z,9.68
2023-09-06T20:05:41.486Z,8.95
2023-09-06T20:08:09.360Z,9.55
2023-09-06T20:10:47.227Z,9.27
2023-09-06T20:13:15.237Z,9.82
2023-09-06T20:15:43.026Z,9.85
2023-09-06T20:18:11.143Z,9.60
2023-09-06T20:20:40.210Z,10.63
2023-09-06T20:23:09.640Z,10.15
2023-09-06T20:25:37.112Z,10.60
2023-09-06T20:28:05.520Z,10.48
2023-09-06T20:30:38.002Z,10.77
2023-09-06T20:33:05.621Z,10.55
2023-09-06T20:35:33.117Z,10.98
2023-09-06T20:38:00.810Z,11.93
2023-09-06T20:40:28.656Z,12.75
2023-09-06T20:42:56.341Z,13.43
2023-09-06T20:45:23.831Z,13.10
2023-09-06T20:47:51.318Z,11.70
2023-09-06T20:50:20.238Z,12.10
2023-09-06T20:52:48.070Z,12.27
2023-09-06T20:55:15.577Z,12.60
2023-09-06T20:57:43.407Z,12.82
2023-09-06T21:00:10.992Z,11.85
2023-09-06T21:02:38.919Z,12.57
2023-09-06T21:05:06.689Z,12.35
2023-09-06T21:07:35.041Z,11.98
2023-09-06T21:10:02.638Z,12.52
2023-09-06T21:12:33.330Z,12.32
2023-09-06T21:15:00.838Z,13.18
2023-09-06T21:17:28.511Z,12.35
2023-09-06T21:19:56.133Z,11.45
2023-09-06T21:22:23.549Z,11.32
2023-09-06T21:24:51.129Z,11.20
2023-09-06T21:27:18.706Z,10.70
2023-09-06T21:29:46.641Z,10.07
2023-09-06T21:32:14.400Z,9.55
2023-09-06T21:34:42.331Z,10.00
2023-09-06T21:37:10.266Z,10.13
2023-09-06T21:39:37.720Z,9.43
2023-09-06T21:42:08.438Z,9.27
2023-09-06T21:44:38.766Z,10.20
